sensor_id;sensor_type;location;lat;lon;timestamp;P1;durP1;ratioP1;P2;durP2;ratioP2
47617;SDS011;33336;36.728;-4.414;2024-01-30T00:01:52;20.42;;;5.25;;
47617;SDS011;33336;36.728;-4.414;2024-01-30T00:06:58;18.20;;;4.20;;
47617;SDS011;33336;36.728;-4.414;2024-01-30T00:12:02;15.10;;;4.22;;
47617;SDS011;33336;36.728;-4.414;2024-01-30T00:17:06;18.15;;;4.50;;
47617;SDS011;33336;36.728;-4.414;2024-01-30T00:22:09;16.73;;;3.90;;
47617;SDS011;33336;36.728;-4.414;2024-01-30T00:27:13;20.80;;;3.72;;
47617;SDS011;33336;36.728;-4.414;2024-01-30T00:32:16;16.73;;;3.33;;
47617;SDS011;33336;36.728;-4.414;2024-01-30T00:37:20;15.65;;;3.90;;
47617;SDS011;33336;36.728;-4.414;2024-01-30T00:42:27;24.52;;;4.53;;
47617;SDS011;33336;36.728;-4.414;2024-01-30T00:47:30;14.80;;;4.25;;
47617;SDS011;33336;36.728;-4.414;2024-01-30T00:52:34;19.20;;;4.68;;
47617;SDS011;33336;36.728;-4.414;2024-01-30T00:57:38;17.90;;;4.00;;
47617;SDS011;33336;36.728;-4.414;2024-01-30T01:02:42;21.83;;;3.95;;
47617;SDS011;33336;36.728;-4.414;2024-01-30T01:07:45;18.23;;;3.90;;
47617;SDS011;33336;36.728;-4.414;2024-01-30T01:12:50;22.35;;;4.43;;
47617;SDS011;33336;36.728;-4.414;2024-01-30T01:17:53;17.52;;;4.20;;
47617;SDS011;33336;36.728;-4.414;2024-01-30T01:22:56;14.10;;;4.30;;
47617;SDS011;33336;36.728;-4.414;2024-01-30T01:28:00;21.17;;;4.20;;
47617;SDS011;33336;36.728;-4.414;2024-01-30T01:33:04;17.25;;;4.53;;
47617;SDS011;33336;36.728;-4.414;2024-01-30T01:38:07;16.58;;;4.05;;
47617;SDS011;33336;36.728;-4.414;2024-01-30T01:43:12;20.15;;;5.00;;
47617;SDS011;33336;36.728;-4.414;2024-01-30T01:48:15;19.13;;;4.68;;
47617;SDS011;33336;36.728;-4.414;2024-01-30T01:53:19;20.13;;;4.22;;
47617;SDS011;33336;36.728;-4.414;2024-01-30T01:58:23;12.57;;;4.75;;
47617;SDS011;33336;36.728;-4.414;2024-01-30T02:08:35;15.82;;;4.88;;
47617;SDS011;33336;36.728;-4.414;2024-01-30T02:13:42;18.88;;;5.05;;
47617;SDS011;33336;36.728;-4.414;2024-01-30T02:18:45;25.92;;;3.83;;
47617;SDS011;33336;36.728;-4.414;2024-01-30T02:23:50;24.05;;;5.28;;
47617;SDS011;33336;36.728;-4.414;2024-01-30T02:28:54;18.92;;;5.18;;
47617;SDS011;33336;36.728;-4.414;2024-01-30T02:33:57;14.23;;;4.18;;
47617;SDS011;33336;36.728;-4.414;2024-01-30T02:39:01;18.95;;;4.47;;
47617;SDS011;33336;36.728;-4.414;2024-01-30T02:44:05;18.45;;;4.60;;
47617;SDS011;33336;36.728;-4.414;2024-01-30T02:49:08;21.25;;;5.18;;
47617;SDS011;33336;36.728;-4.414;2024-01-30T02:54:12;19.58;;;4.55;;
47617;SDS011;33336;36.728;-4.414;2024-01-30T02:59:15;16.67;;;4.03;;
47617;SDS011;33336;36.728;-4.414;2024-01-30T03:04:19;13.60;;;4.22;;
47617;SDS011;33336;36.728;-4.414;2024-01-30T03:09:23;14.00;;;4.55;;
47617;SDS011;33336;36.728;-4.414;2024-01-30T03:14:27;23.98;;;5.18;;
47617;SDS011;33336;36.728;-4.414;2024-01-30T03:19:30;28.17;;;6.50;;
47617;SDS011;33336;36.728;-4.414;2024-01-30T03:24:35;17.33;;;5.38;;
47617;SDS011;33336;36.728;-4.414;2024-01-30T03:29:38;20.50;;;4.85;;
47617;SDS011;33336;36.728;-4.414;2024-01-30T03:34:42;18.52;;;4.88;;
47617;SDS011;33336;36.728;-4.414;2024-01-30T03:39:46;18.48;;;4.45;;
47617;SDS011;33336;36.728;-4.414;2024-01-30T03:44:50;13.75;;;4.55;;
47617;SDS011;33336;36.728;-4.414;2024-01-30T03:49:54;15.05;;;3.90;;
47617;SDS011;33336;36.728;-4.414;2024-01-30T03:54:58;23.20;;;6.35;;
47617;SDS011;33336;36.728;-4.414;2024-01-30T04:00:01;28.23;;;5.63;;
47617;SDS011;33336;36.728;-4.414;2024-01-30T04:05:06;21.70;;;4.30;;
47617;SDS011;33336;36.728;-4.414;2024-01-30T04:10:11;19.23;;;4.55;;
47617;SDS011;33336;36.728;-4.414;2024-01-30T04:15:14;23.60;;;5.20;;
47617;SDS011;33336;36.728;-4.414;2024-01-30T04:20:17;22.17;;;4.78;;
47617;SDS011;33336;36.728;-4.414;2024-01-30T04:25:22;25.63;;;6.30;;
47617;SDS011;33336;36.728;-4.414;2024-01-30T04:30:25;18.40;;;5.40;;
47617;SDS011;33336;36.728;-4.414;2024-01-30T04:35:28;17.05;;;4.80;;
47617;SDS011;33336;36.728;-4.414;2024-01-30T04:40:32;16.92;;;5.07;;
47617;SDS011;33336;36.728;-4.414;2024-01-30T04:45:35;22.23;;;5.75;;
47617;SDS011;33336;36.728;-4.414;2024-01-30T04:50:37;22.73;;;6.13;;
47617;SDS011;33336;36.728;-4.414;2024-01-30T04:55:42;18.25;;;4.68;;
47617;SDS011;33336;36.728;-4.414;2024-01-30T05:00:45;21.25;;;5.82;;
47617;SDS011;33336;36.728;-4.414;2024-01-30T05:05:53;15.48;;;5.00;;
47617;SDS011;33336;36.728;-4.414;2024-01-30T05:11:01;18.13;;;4.63;;
47617;SDS011;33336;36.728;-4.414;2024-01-30T05:16:05;16.90;;;4.75;;
47617;SDS011;33336;36.728;-4.414;2024-01-30T05:21:08;24.83;;;4.65;;
47617;SDS011;33336;36.728;-4.414;2024-01-30T05:26:14;19.50;;;4.68;;
47617;SDS011;33336;36.728;-4.414;2024-01-30T05:31:17;16.38;;;4.47;;
47617;SDS011;33336;36.728;-4.414;2024-01-30T05:36:20;16.00;;;4.70;;
47617;SDS011;33336;36.728;-4.414;2024-01-30T05:41:24;18.00;;;5.55;;
47617;SDS011;33336;36.728;-4.414;2024-01-30T05:46:28;15.57;;;5.32;;
47617;SDS011;33336;36.728;-4.414;2024-01-30T05:51:30;21.30;;;4.30;;
47617;SDS011;33336;36.728;-4.414;2024-01-30T05:56:35;20.58;;;4.60;;
47617;SDS011;33336;36.728;-4.414;2024-01-30T06:01:38;10.32;;;3.58;;
47617;SDS011;33336;36.728;-4.414;2024-01-30T06:06:47;17.67;;;4.38;;
47617;SDS011;33336;36.728;-4.414;2024-01-30T06:11:51;13.82;;;4.45;;
47617;SDS011;33336;36.728;-4.414;2024-01-30T06:16:55;14.43;;;4.60;;
47617;SDS011;33336;36.728;-4.414;2024-01-30T06:21:57;16.83;;;4.10;;
47617;SDS011;33336;36.728;-4.414;2024-01-30T06:27:02;14.10;;;4.70;;
47617;SDS011;33336;36.728;-4.414;2024-01-30T06:32:06;12.77;;;3.88;;
47617;SDS011;33336;36.728;-4.414;2024-01-30T06:37:08;19.08;;;4.18;;
47617;SDS011;33336;36.728;-4.414;2024-01-30T06:42:13;20.92;;;5.25;;
47617;SDS011;33336;36.728;-4.414;2024-01-30T06:47:16;18.50;;;4.78;;
47617;SDS011;33336;36.728;-4.414;2024-01-30T06:52:18;13.77;;;4.13;;
47617;SDS011;33336;36.728;-4.414;2024-01-30T06:57:23;17.10;;;4.80;;
47617;SDS011;33336;36.728;-4.414;2024-01-30T07:02:28;19.77;;;4.23;;
47617;SDS011;33336;36.728;-4.414;2024-01-30T07:07:32;17.48;;;5.32;;
47617;SDS011;33336;36.728;-4.414;2024-01-30T07:12:36;17.80;;;4.20;;
47617;SDS011;33336;36.728;-4.414;2024-01-30T07:17:40;15.55;;;4.40;;
47617;SDS011;33336;36.728;-4.414;2024-01-30T07:22:43;13.68;;;4.60;;
47617;SDS011;33336;36.728;-4.414;2024-01-30T07:27:47;18.88;;;4.43;;
47617;SDS011;33336;36.728;-4.414;2024-01-30T07:32:50;18.00;;;4.63;;
47617;SDS011;33336;36.728;-4.414;2024-01-30T07:37:54;16.27;;;4.05;;
47617;SDS011;33336;36.728;-4.414;2024-01-30T07:42:58;17.55;;;5.65;;
47617;SDS011;33336;36.728;-4.414;2024-01-30T07:48:02;19.45;;;4.30;;
47617;SDS011;33336;36.728;-4.414;2024-01-30T07:53:05;17.92;;;4.60;;
47617;SDS011;33336;36.728;-4.414;2024-01-30T07:58:09;12.43;;;3.90;;
47617;SDS011;33336;36.728;-4.414;2024-01-30T08:03:12;23.90;;;4.40;;
47617;SDS011;33336;36.728;-4.414;2024-01-30T08:08:18;23.35;;;3.88;;
47617;SDS011;33336;36.728;-4.414;2024-01-30T08:13:23;14.93;;;3.50;;
47617;SDS011;33336;36.728;-4.414;2024-01-30T08:18:27;19.35;;;4.32;;
47617;SDS011;33336;36.728;-4.414;2024-01-30T08:23:29;11.57;;;3.20;;
47617;SDS011;33336;36.728;-4.414;2024-01-30T08:28:34;12.55;;;3.58;;
47617;SDS011;33336;36.728;-4.414;2024-01-30T08:33:37;12.88;;;4.13;;
47617;SDS011;33336;36.728;-4.414;2024-01-30T08:38:40;12.52;;;3.75;;
47617;SDS011;33336;36.728;-4.414;2024-01-30T08:43:44;12.30;;;4.05;;
47617;SDS011;33336;36.728;-4.414;2024-01-30T08:48:48;12.70;;;4.28;;
47617;SDS011;33336;36.728;-4.414;2024-01-30T08:53:50;13.55;;;3.65;;
47617;SDS011;33336;36.728;-4.414;2024-01-30T08:58:56;14.10;;;3.60;;
47617;SDS011;33336;36.728;-4.414;2024-01-30T09:03:59;12.23;;;3.45;;
47617;SDS011;33336;36.728;-4.414;2024-01-30T09:09:03;17.92;;;3.92;;
47617;SDS011;33336;36.728;-4.414;2024-01-30T09:14:08;15.65;;;3.55;;
47617;SDS011;33336;36.728;-4.414;2024-01-30T09:19:12;15.57;;;3.70;;
47617;SDS011;33336;36.728;-4.414;2024-01-30T09:24:14;11.02;;;3.58;;
47617;SDS011;33336;36.728;-4.414;2024-01-30T09:29:19;13.63;;;3.55;;
47617;SDS011;33336;36.728;-4.414;2024-01-30T09:34:22;9.60;;;3.90;;
47617;SDS011;33336;36.728;-4.414;2024-01-30T09:39:26;11.60;;;3.38;;
47617;SDS011;33336;36.728;-4.414;2024-01-30T09:44:30;15.90;;;3.75;;
47617;SDS011;33336;36.728;-4.414;2024-01-30T09:49:35;15.98;;;4.15;;
47617;SDS011;33336;36.728;-4.414;2024-01-30T09:54:38;12.95;;;3.63;;
47617;SDS011;33336;36.728;-4.414;2024-01-30T09:59:44;14.68;;;2.97;;
47617;SDS011;33336;36.728;-4.414;2024-01-30T10:04:47;14.63;;;3.60;;
47617;SDS011;33336;36.728;-4.414;2024-01-30T10:09:52;12.15;;;3.35;;
47617;SDS011;33336;36.728;-4.414;2024-01-30T10:14:58;13.60;;;3.55;;
47617;SDS011;33336;36.728;-4.414;2024-01-30T10:20:04;12.90;;;3.42;;
47617;SDS011;33336;36.728;-4.414;2024-01-30T10:25:07;8.98;;;3.28;;
47617;SDS011;33336;36.728;-4.414;2024-01-30T10:30:13;8.60;;;3.20;;
47617;SDS011;33336;36.728;-4.414;2024-01-30T10:35:16;13.43;;;3.33;;
47617;SDS011;33336;36.728;-4.414;2024-01-30T10:40:20;11.23;;;3.10;;
47617;SDS011;33336;36.728;-4.414;2024-01-30T10:45:28;8.70;;;2.90;;
47617;SDS011;33336;36.728;-4.414;2024-01-30T10:50:33;13.95;;;3.55;;
47617;SDS011;33336;36.728;-4.414;2024-01-30T10:55:37;13.10;;;3.58;;
47617;SDS011;33336;36.728;-4.414;2024-01-30T11:00:43;7.97;;;3.53;;
47617;SDS011;33336;36.728;-4.414;2024-01-30T11:05:48;16.15;;;3.42;;
47617;SDS011;33336;36.728;-4.414;2024-01-30T11:10:55;10.98;;;3.30;;
47617;SDS011;33336;36.728;-4.414;2024-01-30T11:16:04;9.20;;;3.30;;
47617;SDS011;33336;36.728;-4.414;2024-01-30T11:21:08;6.63;;;3.00;;
47617;SDS011;33336;36.728;-4.414;2024-01-30T11:26:10;11.93;;;3.17;;
47617;SDS011;33336;36.728;-4.414;2024-01-30T11:31:15;10.15;;;3.03;;
47617;SDS011;33336;36.728;-4.414;2024-01-30T11:36:21;12.05;;;3.95;;
47617;SDS011;33336;36.728;-4.414;2024-01-30T11:41:29;16.10;;;4.37;;
47617;SDS011;33336;36.728;-4.414;2024-01-30T11:46:34;10.77;;;3.53;;
47617;SDS011;33336;36.728;-4.414;2024-01-30T11:51:37;10.93;;;3.33;;
47617;SDS011;33336;36.728;-4.414;2024-01-30T11:56:40;7.13;;;3.00;;
47617;SDS011;33336;36.728;-4.414;2024-01-30T12:01:46;8.77;;;3.03;;
47617;SDS011;33336;36.728;-4.414;2024-01-30T12:06:50;15.70;;;3.20;;
47617;SDS011;33336;36.728;-4.414;2024-01-30T12:11:53;9.93;;;3.15;;
47617;SDS011;33336;36.728;-4.414;2024-01-30T12:16:59;12.63;;;3.72;;
47617;SDS011;33336;36.728;-4.414;2024-01-30T12:22:04;8.50;;;3.20;;
47617;SDS011;33336;36.728;-4.414;2024-01-30T12:27:06;16.17;;;3.80;;
47617;SDS011;33336;36.728;-4.414;2024-01-30T12:32:15;10.30;;;3.20;;
47617;SDS011;33336;36.728;-4.414;2024-01-30T12:37:18;11.50;;;3.55;;
47617;SDS011;33336;36.728;-4.414;2024-01-30T12:42:23;11.70;;;3.10;;
47617;SDS011;33336;36.728;-4.414;2024-01-30T12:47:30;14.55;;;2.80;;
47617;SDS011;33336;36.728;-4.414;2024-01-30T12:52:34;8.48;;;2.88;;
47617;SDS011;33336;36.728;-4.414;2024-01-30T12:57:37;6.95;;;3.25;;
47617;SDS011;33336;36.728;-4.414;2024-01-30T13:02:42;10.13;;;3.28;;
47617;SDS011;33336;36.728;-4.414;2024-01-30T13:07:45;5.57;;;2.70;;
47617;SDS011;33336;36.728;-4.414;2024-01-30T13:12:48;11.73;;;3.55;;
47617;SDS011;33336;36.728;-4.414;2024-01-30T13:17:54;13.10;;;2.97;;
47617;SDS011;33336;36.728;-4.414;2024-01-30T13:22:57;12.23;;;3.13;;
47617;SDS011;33336;36.728;-4.414;2024-01-30T13:28:00;11.35;;;3.10;;
47617;SDS011;33336;36.728;-4.414;2024-01-30T13:33:05;8.73;;;3.45;;
47617;SDS011;33336;36.728;-4.414;2024-01-30T13:38:08;9.55;;;3.20;;
47617;SDS011;33336;36.728;-4.414;2024-01-30T13:43:11;13.68;;;3.92;;
47617;SDS011;33336;36.728;-4.414;2024-01-30T13:48:15;10.68;;;3.90;;
47617;SDS011;33336;36.728;-4.414;2024-01-30T13:53:18;13.88;;;4.15;;
47617;SDS011;33336;36.728;-4.414;2024-01-30T13:58:21;10.05;;;3.53;;
47617;SDS011;33336;36.728;-4.414;2024-01-30T14:03:26;11.95;;;3.47;;
47617;SDS011;33336;36.728;-4.414;2024-01-30T14:08:29;10.32;;;3.72;;
47617;SDS011;33336;36.728;-4.414;2024-01-30T14:13:32;12.35;;;3.88;;
47617;SDS011;33336;36.728;-4.414;2024-01-30T14:18:37;6.75;;;3.03;;
47617;SDS011;33336;36.728;-4.414;2024-01-30T14:23:42;7.53;;;3.35;;
47617;SDS011;33336;36.728;-4.414;2024-01-30T14:28:45;12.52;;;3.63;;
47617;SDS011;33336;36.728;-4.414;2024-01-30T14:33:50;12.18;;;3.20;;
47617;SDS011;33336;36.728;-4.414;2024-01-30T14:38:53;9.23;;;3.35;;
47617;SDS011;33336;36.728;-4.414;2024-01-30T14:43:56;9.50;;;3.22;;
47617;SDS011;33336;36.728;-4.414;2024-01-30T14:49:01;11.23;;;3.42;;
47617;SDS011;33336;36.728;-4.414;2024-01-30T14:54:06;18.75;;;4.15;;
47617;SDS011;33336;36.728;-4.414;2024-01-30T14:59:09;8.77;;;2.97;;
47617;SDS011;33336;36.728;-4.414;2024-01-30T15:04:14;13.70;;;3.72;;
47617;SDS011;33336;36.728;-4.414;2024-01-30T15:09:17;10.23;;;3.70;;
47617;SDS011;33336;36.728;-4.414;2024-01-30T15:14:23;9.55;;;3.03;;
47617;SDS011;33336;36.728;-4.414;2024-01-30T15:19:28;10.70;;;3.25;;
47617;SDS011;33336;36.728;-4.414;2024-01-30T15:24:32;8.05;;;3.33;;
47617;SDS011;33336;36.728;-4.414;2024-01-30T15:29:35;8.15;;;3.38;;
47617;SDS011;33336;36.728;-4.414;2024-01-30T15:34:40;7.78;;;2.83;;
47617;SDS011;33336;36.728;-4.414;2024-01-30T15:39:43;9.63;;;3.15;;
47617;SDS011;33336;36.728;-4.414;2024-01-30T15:44:46;13.27;;;2.80;;
47617;SDS011;33336;36.728;-4.414;2024-01-30T15:49:51;12.00;;;3.33;;
47617;SDS011;33336;36.728;-4.414;2024-01-30T15:54:54;11.05;;;3.35;;
47617;SDS011;33336;36.728;-4.414;2024-01-30T15:59:57;7.38;;;3.05;;
47617;SDS011;33336;36.728;-4.414;2024-01-30T16:05:02;16.02;;;3.47;;
47617;SDS011;33336;36.728;-4.414;2024-01-30T16:10:05;8.45;;;3.17;;
47617;SDS011;33336;36.728;-4.414;2024-01-30T16:15:09;12.68;;;3.72;;
47617;SDS011;33336;36.728;-4.414;2024-01-30T16:20:14;10.05;;;3.22;;
47617;SDS011;33336;36.728;-4.414;2024-01-30T16:25:17;11.13;;;3.50;;
47617;SDS011;33336;36.728;-4.414;2024-01-30T16:30:21;9.45;;;3.10;;
47617;SDS011;33336;36.728;-4.414;2024-01-30T16:35:26;10.30;;;3.20;;
47617;SDS011;33336;36.728;-4.414;2024-01-30T16:40:28;10.68;;;2.70;;
47617;SDS011;33336;36.728;-4.414;2024-01-30T16:45:31;12.35;;;3.22;;
47617;SDS011;33336;36.728;-4.414;2024-01-30T16:50:36;9.38;;;2.83;;
47617;SDS011;33336;36.728;-4.414;2024-01-30T16:55:39;9.57;;;3.20;;
47617;SDS011;33336;36.728;-4.414;2024-01-30T17:00:42;7.53;;;3.22;;
47617;SDS011;33336;36.728;-4.414;2024-01-30T17:05:47;10.18;;;2.85;;
47617;SDS011;33336;36.728;-4.414;2024-01-30T17:10:54;6.18;;;2.97;;
47617;SDS011;33336;36.728;-4.414;2024-01-30T17:15:59;8.27;;;3.35;;
47617;SDS011;33336;36.728;-4.414;2024-01-30T17:21:06;13.00;;;3.33;;
47617;SDS011;33336;36.728;-4.414;2024-01-30T17:26:10;14.10;;;4.57;;
47617;SDS011;33336;36.728;-4.414;2024-01-30T17:31:13;7.13;;;3.20;;
47617;SDS011;33336;36.728;-4.414;2024-01-30T17:36:17;10.57;;;3.63;;
47617;SDS011;33336;36.728;-4.414;2024-01-30T17:41:21;10.55;;;3.40;;
47617;SDS011;33336;36.728;-4.414;2024-01-30T17:46:24;11.25;;;4.00;;
47617;SDS011;33336;36.728;-4.414;2024-01-30T17:51:29;10.90;;;3.63;;
47617;SDS011;33336;36.728;-4.414;2024-01-30T17:56:32;17.67;;;4.70;;
47617;SDS011;33336;36.728;-4.414;2024-01-30T18:01:35;10.35;;;4.55;;
47617;SDS011;33336;36.728;-4.414;2024-01-30T18:06:41;9.93;;;4.45;;
47617;SDS011;33336;36.728;-4.414;2024-01-30T18:11:51;12.40;;;4.13;;
47617;SDS011;33336;36.728;-4.414;2024-01-30T18:16:55;18.45;;;4.30;;
47617;SDS011;33336;36.728;-4.414;2024-01-30T18:22:00;17.25;;;4.93;;
47617;SDS011;33336;36.728;-4.414;2024-01-30T18:27:04;15.43;;;4.50;;
47617;SDS011;33336;36.728;-4.414;2024-01-30T18:32:09;16.45;;;4.75;;
47617;SDS011;33336;36.728;-4.414;2024-01-30T18:37:14;21.75;;;5.63;;
47617;SDS011;33336;36.728;-4.414;2024-01-30T18:42:16;13.27;;;6.10;;
47617;SDS011;33336;36.728;-4.414;2024-01-30T18:47:20;16.38;;;5.40;;
47617;SDS011;33336;36.728;-4.414;2024-01-30T18:52:25;14.60;;;5.95;;
47617;SDS011;33336;36.728;-4.414;2024-01-30T18:57:30;15.87;;;6.37;;
47617;SDS011;33336;36.728;-4.414;2024-01-30T19:02:33;14.75;;;5.05;;
47617;SDS011;33336;36.728;-4.414;2024-01-30T19:07:38;13.35;;;5.68;;
47617;SDS011;33336;36.728;-4.414;2024-01-30T19:12:41;14.90;;;5.18;;
47617;SDS011;33336;36.728;-4.414;2024-01-30T19:17:47;14.35;;;5.60;;
47617;SDS011;33336;36.728;-4.414;2024-01-30T19:22:54;13.00;;;5.53;;
47617;SDS011;33336;36.728;-4.414;2024-01-30T19:27:58;16.33;;;5.38;;
47617;SDS011;33336;36.728;-4.414;2024-01-30T19:33:02;15.48;;;5.30;;
47617;SDS011;33336;36.728;-4.414;2024-01-30T19:38:08;18.30;;;5.63;;
47617;SDS011;33336;36.728;-4.414;2024-01-30T19:48:17;11.73;;;5.47;;
47617;SDS011;33336;36.728;-4.414;2024-01-30T19:53:22;16.80;;;6.03;;
47617;SDS011;33336;36.728;-4.414;2024-01-30T19:58:27;12.98;;;4.93;;
47617;SDS011;33336;36.728;-4.414;2024-01-30T20:03:30;15.95;;;5.18;;
47617;SDS011;33336;36.728;-4.414;2024-01-30T20:08:36;12.07;;;4.97;;
47617;SDS011;33336;36.728;-4.414;2024-01-30T20:13:39;18.55;;;6.43;;
47617;SDS011;33336;36.728;-4.414;2024-01-30T20:18:42;24.38;;;6.72;;
47617;SDS011;33336;36.728;-4.414;2024-01-30T20:23:47;18.05;;;5.70;;
47617;SDS011;33336;36.728;-4.414;2024-01-30T20:28:51;20.27;;;5.85;;
47617;SDS011;33336;36.728;-4.414;2024-01-30T20:33:55;16.38;;;5.47;;
47617;SDS011;33336;36.728;-4.414;2024-01-30T20:39:00;13.23;;;4.97;;
47617;SDS011;33336;36.728;-4.414;2024-01-30T20:44:04;27.10;;;6.15;;
47617;SDS011;33336;36.728;-4.414;2024-01-30T20:49:08;20.10;;;5.43;;
47617;SDS011;33336;36.728;-4.414;2024-01-30T20:54:13;20.17;;;6.45;;
47617;SDS011;33336;36.728;-4.414;2024-01-30T20:59:16;21.48;;;5.60;;
47617;SDS011;33336;36.728;-4.414;2024-01-30T21:04:19;25.00;;;6.35;;
47617;SDS011;33336;36.728;-4.414;2024-01-30T21:09:24;26.15;;;7.47;;
47617;SDS011;33336;36.728;-4.414;2024-01-30T21:14:27;23.38;;;7.28;;
47617;SDS011;33336;36.728;-4.414;2024-01-30T21:19:30;20.67;;;7.15;;
47617;SDS011;33336;36.728;-4.414;2024-01-30T21:24:35;17.42;;;6.00;;
47617;SDS011;33336;36.728;-4.414;2024-01-30T21:29:38;18.15;;;6.78;;
47617;SDS011;33336;36.728;-4.414;2024-01-30T21:34:44;27.73;;;7.18;;
47617;SDS011;33336;36.728;-4.414;2024-01-30T21:39:50;23.80;;;6.25;;
47617;SDS011;33336;36.728;-4.414;2024-01-30T21:44:54;19.00;;;5.43;;
47617;SDS011;33336;36.728;-4.414;2024-01-30T21:49:58;17.73;;;5.18;;
47617;SDS011;33336;36.728;-4.414;2024-01-30T21:55:03;18.13;;;5.70;;
47617;SDS011;33336;36.728;-4.414;2024-01-30T22:00:07;19.70;;;6.72;;
47617;SDS011;33336;36.728;-4.414;2024-01-30T22:05:10;23.67;;;6.40;;
47617;SDS011;33336;36.728;-4.414;2024-01-30T22:10:15;21.67;;;5.88;;
47617;SDS011;33336;36.728;-4.414;2024-01-30T22:15:18;25.98;;;6.20;;
47617;SDS011;33336;36.728;-4.414;2024-01-30T22:20:21;23.25;;;5.88;;
47617;SDS011;33336;36.728;-4.414;2024-01-30T22:25:25;23.75;;;6.50;;
47617;SDS011;33336;36.728;-4.414;2024-01-30T22:30:29;30.42;;;5.88;;
47617;SDS011;33336;36.728;-4.414;2024-01-30T22:35:32;18.98;;;5.80;;
47617;SDS011;33336;36.728;-4.414;2024-01-30T22:40:37;19.08;;;5.78;;
47617;SDS011;33336;36.728;-4.414;2024-01-30T22:45:39;29.40;;;6.50;;
47617;SDS011;33336;36.728;-4.414;2024-01-30T22:50:42;26.88;;;7.15;;
47617;SDS011;33336;36.728;-4.414;2024-01-30T22:55:47;18.83;;;5.38;;
47617;SDS011;33336;36.728;-4.414;2024-01-30T23:00:50;25.92;;;6.07;;
47617;SDS011;33336;36.728;-4.414;2024-01-30T23:05:53;17.77;;;5.55;;
47617;SDS011;33336;36.728;-4.414;2024-01-30T23:10:58;23.13;;;6.13;;
47617;SDS011;33336;36.728;-4.414;2024-01-30T23:16:00;21.58;;;6.43;;
47617;SDS011;33336;36.728;-4.414;2024-01-30T23:21:04;28.88;;;6.18;;
47617;SDS011;33336;36.728;-4.414;2024-01-30T23:26:09;28.30;;;6.38;;
47617;SDS011;33336;36.728;-4.414;2024-01-30T23:31:12;25.83;;;5.18;;
47617;SDS011;33336;36.728;-4.414;2024-01-30T23:36:15;19.30;;;5.03;;
47617;SDS011;33336;36.728;-4.414;2024-01-30T23:41:21;19.65;;;4.93;;
47617;SDS011;33336;36.728;-4.414;2024-01-30T23:46:23;18.02;;;4.85;;
47617;SDS011;33336;36.728;-4.414;2024-01-30T23:51:27;15.43;;;4.43;;
47617;SDS011;33336;36.728;-4.414;2024-01-30T23:56:31;18.45;;;4.80;;
